createdAt,value
2022-12-01T00:01:26.193Z,6.96
2022-12-01T00:03:54.658Z,6.97
2022-12-01T00:06:25.287Z,6.89
2022-12-01T00:09:16.489Z,6.83
2022-12-01T00:11:48.315Z,6.80
2022-12-01T00:14:16.500Z,6.77
2022-12-01T00:16:44.673Z,6.78
2022-12-01T00:19:12.357Z,6.75
2022-12-01T00:21:39.852Z,6.77
2022-12-01T00:24:07.692Z,6.72
2022-12-01T00:26:37.732Z,6.73
2022-12-01T00:29:05.195Z,6.72
2022-12-01T00:31:32.856Z,6.69
2022-12-01T00:34:00.265Z,6.71
2022-12-01T00:36:27.658Z,6.70
2022-12-01T00:38:56.426Z,6.71
2022-12-01T00:41:25.463Z,6.68
2022-12-01T00:43:53.109Z,6.67
2022-12-01T00:46:21.020Z,6.66
2022-12-01T00:48:49.611Z,6.65
2022-12-01T00:51:17.032Z,6.63
2022-12-01T00:53:44.332Z,6.60
2022-12-01T00:56:11.710Z,6.63
2022-12-01T00:58:39.036Z,6.55
2022-12-01T01:01:06.541Z,6.60
2022-12-01T01:03:34.848Z,6.67
2022-12-01T01:06:11.330Z,6.67
2022-12-01T01:08:39.301Z,6.65
2022-12-01T01:11:07.872Z,6.67
2022-12-01T01:13:36.606Z,6.73
2022-12-01T01:16:13.687Z,6.74
2022-12-01T01:18:41.271Z,6.74
2022-12-01T01:21:11.647Z,6.77
2022-12-01T01:23:39.201Z,6.79
2022-12-01T01:26:27.603Z,6.73
2022-12-01T01:29:01.238Z,6.66
2022-12-01T01:31:30.695Z,6.61
2022-12-01T01:33:58.494Z,6.62
2022-12-01T01:36:26.530Z,6.61
2022-12-01T01:38:55.211Z,6.59
2022-12-01T01:41:23.535Z,6.58
2022-12-01T01:43:59.624Z,6.65
2022-12-01T01:46:28.457Z,6.62
2022-12-01T01:49:08.882Z,6.62
2022-12-01T01:51:46.974Z,6.61
2022-12-01T01:54:25.671Z,6.69
2022-12-01T01:56:54.420Z,6.62
2022-12-01T01:59:28.350Z,6.62
2022-12-01T02:02:08.515Z,6.62
2022-12-01T02:04:40.314Z,6.61
2022-12-01T02:07:08.979Z,6.57
2022-12-01T02:09:36.597Z,6.52
2022-12-01T02:12:45.259Z,6.53
2022-12-01T02:15:43.606Z,6.55
2022-12-01T02:18:29.379Z,6.56
2022-12-01T02:21:51.009Z,6.59
2022-12-01T02:24:42.852Z,6.64
2022-12-01T02:27:31.824Z,6.64
2022-12-01T02:30:00.329Z,6.59
2022-12-01T02:33:06.149Z,6.61
2022-12-01T02:36:28.585Z,6.59
2022-12-01T02:39:20.518Z,6.46
2022-12-01T02:41:59.078Z,6.36
2022-12-01T02:44:29.226Z,6.46
2022-12-01T02:47:01.777Z,6.52
2022-12-01T02:49:35.385Z,6.54
2022-12-01T02:52:06.506Z,6.53
2022-12-01T02:54:34.857Z,6.57
2022-12-01T02:57:02.345Z,6.54
2022-12-01T02:59:29.686Z,6.55
2022-12-01T03:02:18.833Z,6.60
2022-12-01T03:05:04.750Z,6.63
2022-12-01T03:07:59.937Z,6.62
2022-12-01T03:10:48.762Z,6.64
2022-12-01T03:13:54.577Z,6.64
2022-12-01T03:16:51.089Z,6.64
2022-12-01T03:19:36.812Z,6.67
2022-12-01T03:22:26.107Z,6.69
2022-12-01T03:24:55.871Z,6.63
2022-12-01T03:27:29.916Z,6.67
2022-12-01T03:30:00.028Z,6.69
2022-12-01T03:32:33.212Z,6.69
2022-12-01T03:35:23.594Z,6.61
2022-12-01T03:38:11.989Z,6.64
2022-12-01T03:40:40.413Z,6.69
2022-12-01T03:43:12.224Z,6.66
2022-12-01T03:46:01.231Z,6.69
2022-12-01T03:48:30.637Z,6.64
2022-12-01T03:50:57.878Z,6.60
2022-12-01T03:53:31.756Z,6.62
2022-12-01T03:56:06.069Z,6.66
2022-12-01T03:58:39.227Z,6.57
2022-12-01T04:01:07.816Z,6.54
2022-12-01T04:03:35.240Z,6.58
2022-12-01T04:06:02.850Z,6.60
2022-12-01T04:08:30.830Z,6.56
2022-12-01T04:10:58.185Z,6.56
2022-12-01T04:13:26.552Z,6.54
2022-12-01T04:15:55.745Z,6.52
2022-12-01T04:18:23.211Z,6.47
2022-12-01T04:20:51.708Z,6.50
2022-12-01T04:23:37.529Z,6.38
2022-12-01T04:26:05.397Z,6.48
2022-12-01T04:28:32.864Z,6.39
2022-12-01T04:31:00.335Z,6.38
2022-12-01T04:33:29.513Z,6.40
2022-12-01T04:35:58.946Z,6.37
2022-12-01T04:38:30.541Z,6.31
2022-12-01T04:40:58.368Z,6.43
2022-12-01T04:43:25.722Z,6.39
2022-12-01T04:45:53.044Z,6.33
2022-12-01T04:48:20.408Z,6.35
2022-12-01T04:50:49.289Z,6.27
2022-12-01T04:53:16.713Z,6.28
2022-12-01T04:55:44.053Z,6.33
2022-12-01T04:58:11.440Z,6.31
2022-12-01T05:00:38.978Z,6.29
2022-12-01T05:03:09.637Z,6.36
2022-12-01T05:05:40.971Z,6.31
2022-12-01T05:08:08.436Z,6.29
2022-12-01T05:10:37.553Z,6.41
2022-12-01T05:13:06.050Z,6.33
2022-12-01T05:15:33.426Z,6.26
2022-12-01T05:18:00.978Z,6.33
2022-12-01T05:20:46.796Z,6.30
2022-12-01T05:23:16.965Z,6.29
2022-12-01T05:25:44.674Z,6.31
2022-12-01T05:28:12.104Z,6.34
2022-12-01T05:30:39.626Z,6.37
2022-12-01T05:33:07.155Z,6.35
2022-12-01T05:35:34.778Z,6.41
2022-12-01T05:38:07.542Z,6.42
2022-12-01T05:40:36.582Z,6.42
2022-12-01T05:43:04.661Z,6.43
2022-12-01T05:45:32.190Z,6.51
2022-12-01T05:48:01.341Z,6.48
2022-12-01T05:50:30.145Z,6.44
2022-12-01T05:52:58.563Z,6.44
2022-12-01T05:55:27.060Z,6.44
2022-12-01T05:57:54.565Z,6.51
2022-12-01T06:00:22.180Z,6.51
2022-12-01T06:02:49.582Z,6.54
2022-12-01T06:05:16.972Z,6.46
2022-12-01T06:07:44.317Z,6.43
2022-12-01T06:10:12.288Z,6.42
2022-12-01T06:12:58.210Z,6.47
2022-12-01T06:15:26.785Z,6.52
2022-12-01T06:17:54.420Z,6.51
2022-12-01T06:20:23.356Z,6.54
2022-12-01T06:22:50.763Z,6.45
2022-12-01T06:25:18.183Z,6.48
2022-12-01T06:27:45.593Z,6.58
2022-12-01T06:30:13.410Z,6.56
2022-12-01T06:32:40.729Z,6.52
2022-12-01T06:35:08.501Z,6.52
2022-12-01T06:37:38.142Z,6.51
2022-12-01T06:40:08.601Z,6.48
2022-12-01T06:42:35.942Z,6.51
2022-12-01T06:45:03.356Z,6.59
2022-12-01T06:47:31.003Z,6.61
2022-12-01T06:49:58.618Z,6.55
2022-12-01T06:52:25.973Z,6.58
2022-12-01T06:54:53.305Z,6.65
2022-12-01T06:57:21.004Z,6.68
2022-12-01T06:59:49.057Z,6.68
2022-12-01T07:02:17.141Z,6.69
2022-12-01T07:04:44.596Z,6.79
2022-12-01T07:07:13.981Z,6.79
2022-12-01T07:09:41.439Z,6.80
2022-12-01T07:12:08.809Z,6.80
2022-12-01T07:14:36.367Z,6.86
2022-12-01T07:17:03.875Z,6.90
2022-12-01T07:19:31.353Z,6.88
2022-12-01T07:22:00.123Z,6.93
2022-12-01T07:24:27.593Z,6.96
2022-12-01T07:26:54.978Z,6.88
2022-12-01T07:29:22.376Z,6.84
2022-12-01T07:31:49.746Z,6.91
2022-12-01T07:34:17.216Z,6.90
2022-12-01T07:36:44.535Z,6.99
2022-12-01T07:39:11.887Z,7.00
2022-12-01T07:41:39.415Z,7.12
2022-12-01T07:44:06.898Z,7.02
2022-12-01T07:46:34.431Z,7.22
2022-12-01T07:49:06.955Z,7.34
2022-12-01T07:51:35.069Z,7.43
2022-12-01T07:54:04.371Z,7.40
2022-12-01T07:56:31.880Z,7.36
2022-12-01T07:58:59.301Z,7.29
2022-12-01T08:01:26.828Z,7.39
2022-12-01T08:03:57.313Z,7.45
2022-12-01T08:06:26.071Z,7.42
2022-12-01T08:08:53.490Z,7.53
2022-12-01T08:11:27.910Z,7.62
2022-12-01T08:13:55.838Z,7.70
2022-12-01T08:16:24.487Z,7.79
2022-12-01T08:18:52.732Z,7.70
2022-12-01T08:21:21.766Z,7.78
2022-12-01T08:23:53.754Z,7.81
2022-12-01T08:26:22.067Z,7.97
2022-12-01T08:28:49.721Z,8.24
2022-12-01T08:31:29.517Z,8.22
2022-12-01T08:33:57.617Z,8.51
2022-12-01T08:36:25.664Z,8.58
2022-12-01T08:38:55.086Z,8.36
2022-12-01T08:41:24.193Z,8.36
2022-12-01T08:44:00.286Z,8.57
2022-12-01T08:46:33.000Z,8.66
2022-12-01T08:49:01.476Z,8.67
2022-12-01T08:51:29.313Z,8.64
2022-12-01T08:53:58.386Z,8.94
2022-12-01T08:56:27.528Z,9.32
2022-12-01T08:58:55.485Z,9.64
2022-12-01T09:01:23.178Z,9.49
2022-12-01T09:04:05.321Z,9.73
2022-12-01T09:06:37.752Z,10.03
2022-12-01T09:09:05.212Z,10.12
2022-12-01T09:11:32.485Z,9.92
2022-12-01T09:14:00.686Z,9.90
2022-12-01T09:16:28.213Z,10.37
2022-12-01T09:18:57.128Z,10.50
2022-12-01T09:21:32.907Z,10.78
2022-12-01T09:24:01.944Z,10.89
2022-12-01T09:26:29.921Z,11.21
2022-12-01T09:29:00.438Z,11.10
2022-12-01T09:31:28.642Z,11.16
2022-12-01T09:33:58.402Z,10.95
2022-12-01T09:36:26.568Z,11.02
2022-12-01T09:38:53.939Z,10.79
2022-12-01T09:41:41.971Z,10.79
2022-12-01T09:44:31.018Z,10.89
2022-12-01T09:47:30.757Z,10.93
2022-12-01T09:50:11.144Z,10.79
2022-12-01T09:52:52.597Z,10.92
2022-12-01T09:55:23.159Z,11.00
2022-12-01T09:57:54.347Z,11.07
2022-12-01T10:00:24.735Z,10.95
2022-12-01T10:03:05.904Z,10.86
2022-12-01T10:06:10.396Z,10.93
2022-12-01T10:08:39.041Z,10.93
2022-12-01T10:11:29.770Z,11.00
2022-12-01T10:13:58.832Z,11.01
2022-12-01T10:16:35.172Z,10.86
2022-12-01T10:19:13.120Z,10.77
2022-12-01T10:21:40.445Z,10.75
2022-12-01T10:24:16.941Z,10.84
2022-12-01T10:27:14.026Z,10.93
2022-12-01T10:29:55.622Z,10.77
2022-12-01T10:33:05.489Z,10.95
2022-12-01T10:35:37.735Z,11.02
2022-12-01T10:38:13.353Z,11.01
2022-12-01T10:40:42.734Z,10.68
2022-12-01T10:43:10.910Z,10.71
2022-12-01T10:45:44.030Z,10.78
2022-12-01T10:48:15.685Z,10.80
2022-12-01T10:50:51.903Z,11.04
2022-12-01T10:53:25.023Z,11.01
2022-12-01T10:56:18.221Z,10.95
2022-12-01T10:58:48.120Z,10.80
2022-12-01T11:01:36.010Z,10.94
2022-12-01T11:04:08.405Z,10.92
2022-12-01T11:06:37.517Z,10.94
2022-12-01T11:09:21.503Z,10.91
2022-12-01T11:12:02.892Z,10.96
2022-12-01T11:14:43.622Z,11.08
2022-12-01T11:17:19.631Z,11.14
2022-12-01T11:19:47.351Z,11.00
2022-12-01T11:22:26.731Z,10.93
2022-12-01T11:24:53.976Z,11.08
2022-12-01T11:27:34.715Z,11.11
2022-12-01T11:30:20.164Z,11.26
2022-12-01T11:32:57.008Z,11.40
2022-12-01T11:35:28.605Z,11.51
2022-12-01T11:38:28.443Z,11.62
2022-12-01T11:40:51.366Z,11.54
2022-12-01T11:43:24.778Z,11.43
2022-12-01T11:45:56.037Z,11.49
2022-12-01T11:48:34.091Z,11.57
2022-12-01T11:51:30.032Z,11.65
2022-12-01T11:54:20.370Z,11.71
2022-12-01T11:56:56.102Z,11.78
2022-12-01T11:59:36.300Z,11.85
2022-12-01T12:02:48.685Z,12.23
2022-12-01T12:05:42.458Z,11.94
2022-12-01T12:08:26.736Z,11.96
2022-12-01T12:10:57.200Z,12.18
2022-12-01T12:13:50.005Z,11.87
2022-12-01T12:16:50.572Z,12.16
2022-12-01T12:20:06.281Z,12.19
2022-12-01T12:22:34.432Z,12.08
2022-12-01T12:25:29.436Z,12.02
2022-12-01T12:28:08.878Z,12.04
2022-12-01T12:31:11.404Z,12.14
2022-12-01T12:33:41.727Z,12.01
2022-12-01T12:36:36.563Z,11.84
2022-12-01T12:39:03.858Z,11.84
2022-12-01T12:41:43.309Z,11.53
2022-12-01T12:44:39.287Z,11.60
2022-12-01T12:47:18.407Z,11.65
2022-12-01T12:50:23.043Z,11.35
2022-12-01T12:52:57.266Z,11.38
2022-12-01T12:55:38.637Z,11.34
2022-12-01T12:58:35.589Z,11.40
2022-12-01T13:01:15.892Z,11.34
2022-12-01T13:04:03.810Z,11.34
2022-12-01T13:06:52.934Z,11.27
2022-12-01T13:09:49.288Z,11.43
2022-12-01T13:12:26.153Z,11.38
2022-12-01T13:15:01.266Z,11.45
2022-12-01T13:17:41.855Z,11.51
2022-12-01T13:20:19.281Z,11.21
2022-12-01T13:22:48.125Z,11.26
2022-12-01T13:25:27.597Z,11.30
2022-12-01T13:27:59.001Z,11.38
2022-12-01T13:30:26.961Z,11.27
2022-12-01T13:33:04.117Z,11.14
2022-12-01T13:35:35.021Z,11.30
2022-12-01T13:38:22.811Z,11.21
2022-12-01T13:41:11.231Z,11.23
2022-12-01T13:43:52.358Z,11.20
2022-12-01T13:46:25.829Z,11.20
2022-12-01T13:48:56.960Z,11.22
2022-12-01T13:51:25.870Z,11.17
2022-12-01T13:54:06.262Z,11.19
2022-12-01T13:56:45.327Z,11.13
2022-12-01T13:59:41.670Z,11.06
2022-12-01T14:02:17.568Z,11.02
2022-12-01T14:04:45.233Z,11.11
2022-12-01T14:07:34.116Z,11.01
2022-12-01T14:10:15.287Z,10.97
2022-12-01T14:12:45.855Z,10.94
2022-12-01T14:15:32.185Z,10.91
2022-12-01T14:18:04.043Z,10.73
2022-12-01T14:20:46.349Z,10.73
2022-12-01T14:23:21.719Z,10.69
2022-12-01T14:26:17.087Z,10.58
2022-12-01T14:29:02.441Z,10.50
2022-12-01T14:31:32.614Z,10.50
2022-12-01T14:34:15.824Z,10.52
2022-12-01T14:36:52.374Z,10.53
2022-12-01T14:39:22.301Z,10.54
2022-12-01T14:41:53.392Z,10.50
2022-12-01T14:44:20.790Z,10.40
2022-12-01T14:46:54.757Z,10.43
2022-12-01T14:49:25.528Z,10.45
2022-12-01T14:52:07.445Z,10.48
2022-12-01T14:54:47.616Z,10.34
2022-12-01T14:57:20.580Z,10.38
2022-12-01T15:00:02.470Z,10.34
2022-12-01T15:02:30.188Z,10.24
2022-12-01T15:05:20.534Z,10.15
2022-12-01T15:07:50.845Z,10.00
2022-12-01T15:10:19.515Z,10.02
2022-12-01T15:12:48.140Z,10.02
2022-12-01T15:15:24.428Z,9.96
2022-12-01T15:17:53.652Z,9.89
2022-12-01T15:20:47.553Z,9.92
2022-12-01T15:23:17.138Z,9.90
2022-12-01T15:25:46.511Z,9.91
2022-12-01T15:28:19.766Z,9.78
2022-12-01T15:30:50.683Z,9.77
2022-12-01T15:33:36.987Z,9.72
2022-12-01T15:36:08.358Z,9.77
2022-12-01T15:38:37.753Z,9.71
2022-12-01T15:43:57.917Z,9.69
2022-12-01T15:46:30.892Z,9.71
2022-12-01T15:49:09.522Z,9.73
2022-12-01T15:51:37.208Z,9.65
2022-12-01T15:54:04.668Z,9.64
2022-12-01T15:56:36.532Z,9.65
2022-12-01T15:59:27.613Z,9.54
2022-12-01T16:01:56.847Z,9.48
2022-12-01T16:04:32.363Z,9.48
2022-12-01T16:07:04.374Z,9.40
2022-12-01T16:09:34.807Z,9.36
2022-12-01T16:12:17.659Z,9.38
2022-12-01T16:15:13.413Z,9.33
2022-12-01T16:17:48.255Z,9.29
2022-12-01T16:20:26.354Z,9.28
2022-12-01T16:23:00.769Z,9.25
2022-12-01T16:25:44.221Z,9.24
2022-12-01T16:28:24.156Z,9.27
2022-12-01T16:30:52.855Z,9.33
2022-12-01T16:33:24.345Z,9.25
2022-12-01T16:35:52.769Z,9.29
2022-12-01T16:38:25.608Z,9.27
2022-12-01T16:40:58.350Z,9.23
2022-12-01T16:43:27.900Z,9.20
2022-12-01T16:46:09.306Z,9.21
2022-12-01T16:48:37.720Z,9.11
2022-12-01T16:51:10.094Z,9.08
2022-12-01T16:53:37.956Z,9.05
2022-12-01T16:56:05.706Z,8.98
2022-12-01T16:58:33.012Z,9.00
2022-12-01T17:01:00.659Z,9.04
2022-12-01T17:03:30.912Z,8.97
2022-12-01T17:06:03.289Z,8.88
2022-12-01T17:08:30.657Z,8.84
2022-12-01T17:10:58.053Z,8.77
2022-12-01T17:13:25.533Z,8.70
2022-12-01T17:15:57.913Z,8.73
2022-12-01T17:18:25.408Z,8.69
2022-12-01T17:21:00.313Z,8.67
2022-12-01T17:23:28.189Z,8.73
2022-12-01T17:25:55.626Z,8.63
2022-12-01T17:28:23.116Z,8.57
2022-12-01T17:30:52.597Z,8.48
2022-12-01T17:33:22.470Z,8.46
2022-12-01T17:35:50.016Z,8.53
2022-12-01T17:38:17.410Z,8.49
2022-12-01T17:40:44.928Z,8.41
2022-12-01T17:43:12.266Z,8.43
2022-12-01T17:45:41.998Z,8.38
2022-12-01T17:48:09.535Z,8.35
2022-12-01T17:50:37.901Z,8.36
2022-12-01T17:53:05.296Z,8.25
2022-12-01T17:55:32.657Z,8.28
2022-12-01T17:58:00.053Z,8.28
2022-12-01T18:00:32.366Z,8.37
2022-12-01T18:03:02.183Z,8.30
2022-12-01T18:05:29.790Z,8.26
2022-12-01T18:07:59.135Z,8.21
2022-12-01T18:10:26.501Z,8.00
2022-12-01T18:12:53.947Z,7.91
2022-12-01T18:15:21.448Z,7.94
2022-12-01T18:17:48.856Z,8.04
2022-12-01T18:20:16.269Z,8.01
2022-12-01T18:22:43.603Z,8.01
2022-12-01T18:25:10.995Z,8.02
2022-12-01T18:27:38.418Z,8.08
2022-12-01T18:30:06.566Z,8.03
2022-12-01T18:32:33.912Z,7.88
2022-12-01T18:35:01.215Z,7.99
2022-12-01T18:37:28.597Z,7.92
2022-12-01T18:39:56.507Z,7.97
2022-12-01T18:42:24.521Z,7.79
2022-12-01T18:44:52.113Z,7.72
2022-12-01T18:47:19.643Z,7.75
2022-12-01T18:49:47.053Z,7.76
2022-12-01T18:52:14.382Z,7.83
2022-12-01T18:54:41.703Z,7.85
2022-12-01T18:57:09.145Z,7.86
2022-12-01T18:59:36.417Z,8.00
2022-12-01T19:02:04.144Z,7.97
2022-12-01T19:04:31.528Z,7.94
2022-12-01T19:06:58.904Z,7.88
2022-12-01T19:09:26.252Z,7.87
2022-12-01T19:12:00.576Z,7.91
2022-12-01T19:14:28.502Z,7.98
2022-12-01T19:16:59.140Z,7.95
2022-12-01T19:19:26.571Z,7.90
2022-12-01T19:21:54.134Z,7.91
2022-12-01T19:24:21.575Z,7.94
2022-12-01T19:26:49.026Z,8.03
2022-12-01T19:29:16.527Z,7.96
2022-12-01T19:31:43.987Z,7.89
2022-12-01T19:34:11.344Z,7.92
2022-12-01T19:36:38.717Z,7.93
2022-12-01T19:39:07.829Z,7.95
2022-12-01T19:41:38.531Z,7.93
2022-12-01T19:44:06.181Z,7.98
2022-12-01T19:46:33.597Z,7.94
2022-12-01T19:49:01.743Z,7.93
2022-12-01T19:51:34.927Z,7.97
2022-12-01T19:54:07.642Z,8.01
2022-12-01T19:56:35.018Z,8.05
2022-12-01T19:59:02.591Z,8.03
2022-12-01T20:01:30.154Z,7.98
2022-12-01T20:03:57.657Z,7.93
2022-12-01T20:06:28.253Z,7.86
2022-12-01T20:08:58.253Z,7.86
2022-12-01T20:11:26.447Z,7.87
2022-12-01T20:13:53.981Z,7.85
2022-12-01T20:16:23.566Z,7.82
2022-12-01T20:18:51.731Z,7.86
2022-12-01T20:21:20.574Z,7.74
2022-12-01T20:23:54.006Z,7.63
2022-12-01T20:26:24.909Z,7.59
2022-12-01T20:29:01.635Z,7.60
2022-12-01T20:31:31.024Z,7.59
2022-12-01T20:34:01.473Z,7.56
2022-12-01T20:36:29.369Z,7.57
2022-12-01T20:38:56.941Z,7.70
2022-12-01T20:41:24.338Z,7.68
2022-12-01T20:43:53.509Z,7.78
2022-12-01T20:46:21.089Z,7.86
2022-12-01T20:48:48.474Z,7.98
2022-12-01T20:51:16.004Z,7.89
2022-12-01T20:53:59.611Z,7.89
2022-12-01T20:56:32.069Z,7.83
2022-12-01T20:59:00.017Z,7.85
2022-12-01T21:01:27.606Z,7.82
2022-12-01T21:03:55.279Z,7.84
2022-12-01T21:06:22.704Z,7.79
2022-12-01T21:08:51.054Z,7.69
2022-12-01T21:11:19.005Z,7.68
2022-12-01T21:13:47.038Z,7.64
2022-12-01T21:16:27.738Z,7.65
2022-12-01T21:19:06.228Z,7.53
2022-12-01T21:21:38.223Z,7.52
2022-12-01T21:24:08.469Z,7.49
2022-12-01T21:26:46.734Z,7.45
2022-12-01T21:29:25.381Z,7.46
2022-12-01T21:32:01.686Z,7.43
2022-12-01T21:34:29.289Z,7.43
2022-12-01T21:37:02.041Z,7.47
2022-12-01T21:39:30.496Z,7.43
2022-12-01T21:42:13.921Z,7.45
2022-12-01T21:44:41.454Z,7.44
2022-12-01T21:47:21.557Z,7.60
2022-12-01T21:49:56.068Z,7.79
2022-12-01T21:52:29.918Z,8.10
2022-12-01T21:55:09.234Z,8.37
2022-12-01T21:57:43.131Z,8.37
2022-12-01T22:00:26.681Z,8.19
2022-12-01T22:03:09.310Z,8.16
2022-12-01T22:05:40.899Z,8.21
2022-12-01T22:08:14.295Z,8.23
2022-12-01T22:10:50.765Z,8.25
2022-12-01T22:13:19.849Z,8.30
2022-12-01T22:15:47.213Z,8.28
2022-12-01T22:18:22.774Z,8.21
2022-12-01T22:20:50.677Z,8.28
2022-12-01T22:23:19.130Z,8.37
2022-12-01T22:25:48.027Z,8.32
2022-12-01T22:28:22.119Z,8.39
2022-12-01T22:30:49.530Z,8.41
2022-12-01T22:33:21.536Z,8.39
2022-12-01T22:35:52.841Z,8.29
2022-12-01T22:38:39.823Z,8.28
2022-12-01T22:41:14.396Z,8.28
2022-12-01T22:43:47.871Z,8.18
2022-12-01T22:46:22.368Z,8.19
2022-12-01T22:49:19.562Z,8.20
2022-12-01T22:52:05.383Z,8.20
2022-12-01T22:54:37.943Z,8.16
2022-12-01T22:57:13.148Z,8.04
2022-12-01T22:59:43.230Z,8.11
2022-12-01T23:02:21.126Z,8.21
2022-12-01T23:04:52.588Z,8.28
2022-12-01T23:07:26.511Z,8.31
2022-12-01T23:10:31.534Z,8.40
2022-12-01T23:13:08.534Z,8.47
2022-12-01T23:15:39.136Z,8.41
2022-12-01T23:18:12.435Z,8.50
2022-12-01T23:20:41.053Z,8.51
2022-12-01T23:23:20.653Z,8.49
2022-12-01T23:25:50.116Z,8.53
2022-12-01T23:28:18.255Z,8.61
2022-12-01T23:30:47.608Z,8.45
2022-12-01T23:33:27.884Z,8.47
2022-12-01T23:36:21.639Z,8.58
2022-12-01T23:38:52.911Z,8.60
2022-12-01T23:41:32.958Z,8.65
2022-12-01T23:44:04.105Z,8.53
2022-12-01T23:46:32.662Z,8.67
2022-12-01T23:49:03.781Z,8.77
2022-12-01T23:51:35.262Z,8.70
2022-12-01T23:54:10.972Z,8.77
2022-12-01T23:56:38.580Z,8.84
2022-12-01T23:59:12.987Z,8.76
